Hua Hin, Thailand
Current Conditions -  °F | °C
As of 5:00 PM on Sunday 25 Jan 2015 (Local Time) from VTBU Reporting Station
Haze Haze  
Wind Chill: 82°   Ceiling: Unl
Heat Index: 86°   Visibility: 3mi
Dew Point: 70°   Wind: 9mph
Humidity: 66%   Direction: 250°WSW
Pressure: 29.88"   Gusts: NA
Location:  12.57°N, 99.95°E
Report Text: VTBU 251000Z 25008KT 5000 BR FEW025 SCT300 28/21 Q1012 A2991
Loading
Personal Weather Stations






























Interactive Weather Map New forecast layout! Learn more

10-Day Weather Forecast

Advertisements
Track Severe Weather on mobile